This is the latest recevied weather packets stored in our database for station/object OE2SWM. If no packets are shown the sender has not sent any weather packets the latest 1 day(s).
| Time | Temp. | Humidity | Pressure | Rain* | Wind** | Luminosity | Snow |
|---|---|---|---|---|---|---|---|
| 1836274374 | 6.67° C | 97% | 978 hPa | 0 mm | 0 m/s | - | - |
| 1836274224 | 5.56° C | 97% | 978 hPa | 0 mm | 0 m/s | - | - |
| 1778017200 | 7.78° C | 80% | 965 hPa | 0 mm | 0 m/s | - | - |
| 1778016600 | 7.78° C | 79% | 965 hPa | 0 mm | 0 m/s | - | - |
| 1778016000 | 8.89° C | 78% | 966 hPa | 0 mm | 0 m/s | - | - |
| 1778015400 | 8.89° C | 79% | 965 hPa | 0 mm | 0 m/s | - | - |
| 1778014800 | 8.89° C | 78% | 965 hPa | 0 mm | 0 m/s | - | - |
| 1778014200 | 8.89° C | 75% | 965 hPa | 0 mm | 0 m/s | - | - |
| 1778013600 | 10° C | 74% | 965 hPa | 0 mm | 0 m/s | - | - |
| 1778013000 | 10° C | 73% | 965 hPa | 0 mm | 0 m/s | - | - |
| 1778012400 | 10.56° C | 71% | 965 hPa | 0 mm | 0 m/s | - | - |
| 1778011800 | 10.56° C | 69% | 965 hPa | 0 mm | 0 m/s | - | - |
| 1778011200 | 11.67° C | 67% | 965 hPa | 0 mm | 0 m/s | - | - |
| 1778010600 | 12.78° C | 64% | 965 hPa | 0 mm | 0 m/s | - | - |
| 1778010001 | 12.78° C | 63% | 965 hPa | 0 mm | 0 m/s | - | - |
| 1778009400 | 12.78° C | 62% | 964 hPa | 0 mm | 0 m/s | - | - |
| 1778008800 | 12.78° C | 61% | 964 hPa | 0 mm | 0 m/s | - | - |
| 1778008200 | 12.78° C | 62% | 964 hPa | 0 mm | 0 m/s | - | - |
| 1778007600 | 12.78° C | 62% | 964 hPa | 0 mm | 0 m/s | - | - |
| 1778007000 | 13.89° C | 61% | 964 hPa | 0 mm | 0 m/s | - | - |
| 1778006400 | 13.89° C | 60% | 964 hPa | 0 mm | 0 m/s | - | - |
| 1778005800 | 13.89° C | 60% | 964 hPa | 0 mm | 0 m/s | - | - |
| 1778005200 | 13.89° C | 60% | 964 hPa | 0 mm | 0 m/s | - | - |
| 1778004600 | 15° C | 58% | 964 hPa | 0 mm | 0 m/s | - | - |
| 1778004000 | 15° C | 57% | 964 hPa | 0 mm | 0 m/s | - | - |
* Rain latest hour (hover to see other rain measurements)
** Current wind speed in m/s (hover to see current wind gust speed)